sensor_id;sensor_type;location;lat;lon;timestamp;P1;durP1;ratioP1;P2;durP2;ratioP2
13455;SDS011;6800;50.940;6.940;2023-06-10T00:03:30;8.40;;;7.30;;
13455;SDS011;6800;50.940;6.940;2023-06-10T00:07:32;10.60;;;9.55;;
13455;SDS011;6800;50.940;6.940;2023-06-10T00:11:33;8.10;;;6.65;;
13455;SDS011;6800;50.940;6.940;2023-06-10T00:15:35;7.50;;;6.90;;
13455;SDS011;6800;50.940;6.940;2023-06-10T00:19:36;7.05;;;6.45;;
13455;SDS011;6800;50.940;6.940;2023-06-10T00:23:38;8.10;;;7.40;;
13455;SDS011;6800;50.940;6.940;2023-06-10T00:27:39;8.52;;;7.82;;
13455;SDS011;6800;50.940;6.940;2023-06-10T00:31:41;7.75;;;7.05;;
13455;SDS011;6800;50.940;6.940;2023-06-10T00:35:42;9.10;;;8.20;;
13455;SDS011;6800;50.940;6.940;2023-06-10T00:39:44;8.48;;;7.75;;
13455;SDS011;6800;50.940;6.940;2023-06-10T00:43:45;8.18;;;7.00;;
13455;SDS011;6800;50.940;6.940;2023-06-10T00:47:47;10.27;;;9.35;;
13455;SDS011;6800;50.940;6.940;2023-06-10T00:51:48;8.25;;;6.90;;
13455;SDS011;6800;50.940;6.940;2023-06-10T00:55:50;7.93;;;7.07;;
13455;SDS011;6800;50.940;6.940;2023-06-10T00:59:52;10.32;;;9.25;;
13455;SDS011;6800;50.940;6.940;2023-06-10T01:03:53;8.32;;;7.53;;
13455;SDS011;6800;50.940;6.940;2023-06-10T01:08:03;11.13;;;9.13;;
13455;SDS011;6800;50.940;6.940;2023-06-10T01:12:14;9.70;;;8.80;;
13455;SDS011;6800;50.940;6.940;2023-06-10T01:16:21;10.27;;;9.30;;
13455;SDS011;6800;50.940;6.940;2023-06-10T01:20:23;11.27;;;8.85;;
13455;SDS011;6800;50.940;6.940;2023-06-10T01:24:28;8.50;;;7.80;;
13455;SDS011;6800;50.940;6.940;2023-06-10T01:28:31;10.40;;;9.45;;
13455;SDS011;6800;50.940;6.940;2023-06-10T01:32:37;10.15;;;8.02;;
13455;SDS011;6800;50.940;6.940;2023-06-10T01:36:47;9.43;;;8.52;;
13455;SDS011;6800;50.940;6.940;2023-06-10T01:40:50;9.63;;;8.73;;
13455;SDS011;6800;50.940;6.940;2023-06-10T01:44:54;9.02;;;7.95;;
13455;SDS011;6800;50.940;6.940;2023-06-10T01:48:56;9.88;;;8.98;;
13455;SDS011;6800;50.940;6.940;2023-06-10T01:52:57;9.48;;;8.57;;
13455;SDS011;6800;50.940;6.940;2023-06-10T01:56:59;8.68;;;7.93;;
13455;SDS011;6800;50.940;6.940;2023-06-10T02:01:01;8.23;;;7.53;;
13455;SDS011;6800;50.940;6.940;2023-06-10T02:05:03;8.73;;;8.02;;
13455;SDS011;6800;50.940;6.940;2023-06-10T02:09:06;9.07;;;8.30;;
13455;SDS011;6800;50.940;6.940;2023-06-10T02:13:08;9.75;;;8.85;;
13455;SDS011;6800;50.940;6.940;2023-06-10T02:17:09;9.15;;;8.45;;
13455;SDS011;6800;50.940;6.940;2023-06-10T02:21:13;9.27;;;8.48;;
13455;SDS011;6800;50.940;6.940;2023-06-10T02:25:15;9.15;;;8.35;;
13455;SDS011;6800;50.940;6.940;2023-06-10T02:29:16;10.52;;;8.25;;
13455;SDS011;6800;50.940;6.940;2023-06-10T02:33:18;10.18;;;9.27;;
13455;SDS011;6800;50.940;6.940;2023-06-10T02:37:20;8.88;;;8.07;;
13455;SDS011;6800;50.940;6.940;2023-06-10T02:41:22;8.95;;;8.25;;
13455;SDS011;6800;50.940;6.940;2023-06-10T02:45:24;8.82;;;8.02;;
13455;SDS011;6800;50.940;6.940;2023-06-10T02:49:26;9.80;;;8.82;;
13455;SDS011;6800;50.940;6.940;2023-06-10T02:53:30;8.80;;;8.10;;
13455;SDS011;6800;50.940;6.940;2023-06-10T02:57:31;10.23;;;9.32;;
13455;SDS011;6800;50.940;6.940;2023-06-10T03:01:32;9.75;;;8.95;;
13455;SDS011;6800;50.940;6.940;2023-06-10T03:05:34;8.45;;;7.75;;
13455;SDS011;6800;50.940;6.940;2023-06-10T03:09:35;8.95;;;8.23;;
13455;SDS011;6800;50.940;6.940;2023-06-10T03:13:38;9.23;;;8.23;;
13455;SDS011;6800;50.940;6.940;2023-06-10T03:17:39;8.57;;;7.88;;
13455;SDS011;6800;50.940;6.940;2023-06-10T03:21:43;8.40;;;7.60;;
13455;SDS011;6800;50.940;6.940;2023-06-10T03:25:45;9.40;;;8.40;;
13455;SDS011;6800;50.940;6.940;2023-06-10T03:29:47;9.15;;;8.25;;
13455;SDS011;6800;50.940;6.940;2023-06-10T03:33:48;8.07;;;7.40;;
13455;SDS011;6800;50.940;6.940;2023-06-10T03:37:50;9.45;;;8.60;;
13455;SDS011;6800;50.940;6.940;2023-06-10T03:41:51;8.90;;;8.00;;
13455;SDS011;6800;50.940;6.940;2023-06-10T03:45:52;9.57;;;8.68;;
13455;SDS011;6800;50.940;6.940;2023-06-10T03:49:54;11.48;;;10.27;;
13455;SDS011;6800;50.940;6.940;2023-06-10T03:53:55;10.23;;;9.35;;
13455;SDS011;6800;50.940;6.940;2023-06-10T03:57:57;10.88;;;9.88;;
13455;SDS011;6800;50.940;6.940;2023-06-10T04:01:59;10.38;;;9.48;;
13455;SDS011;6800;50.940;6.940;2023-06-10T04:06:01;10.48;;;9.48;;
13455;SDS011;6800;50.940;6.940;2023-06-10T04:10:03;10.02;;;9.13;;
13455;SDS011;6800;50.940;6.940;2023-06-10T04:14:06;9.30;;;8.52;;
13455;SDS011;6800;50.940;6.940;2023-06-10T04:18:07;10.20;;;8.60;;
13455;SDS011;6800;50.940;6.940;2023-06-10T04:22:09;9.75;;;8.80;;
13455;SDS011;6800;50.940;6.940;2023-06-10T04:26:11;9.60;;;8.70;;
13455;SDS011;6800;50.940;6.940;2023-06-10T04:30:13;8.60;;;7.90;;
13455;SDS011;6800;50.940;6.940;2023-06-10T04:34:15;8.43;;;7.65;;
13455;SDS011;6800;50.940;6.940;2023-06-10T04:38:16;9.63;;;8.82;;
13455;SDS011;6800;50.940;6.940;2023-06-10T04:42:17;9.48;;;8.50;;
13455;SDS011;6800;50.940;6.940;2023-06-10T04:46:19;9.18;;;7.88;;
13455;SDS011;6800;50.940;6.940;2023-06-10T04:50:20;10.52;;;8.88;;
13455;SDS011;6800;50.940;6.940;2023-06-10T04:54:21;12.85;;;7.95;;
13455;SDS011;6800;50.940;6.940;2023-06-10T04:58:23;8.50;;;7.70;;
13455;SDS011;6800;50.940;6.940;2023-06-10T05:02:24;8.18;;;7.28;;
13455;SDS011;6800;50.940;6.940;2023-06-10T05:06:26;8.40;;;7.70;;
13455;SDS011;6800;50.940;6.940;2023-06-10T05:10:27;8.50;;;7.63;;
13455;SDS011;6800;50.940;6.940;2023-06-10T05:14:32;7.95;;;7.15;;
13455;SDS011;6800;50.940;6.940;2023-06-10T05:18:33;7.78;;;7.05;;
13455;SDS011;6800;50.940;6.940;2023-06-10T05:22:35;8.02;;;7.22;;
13455;SDS011;6800;50.940;6.940;2023-06-10T05:26:37;7.78;;;7.03;;
13455;SDS011;6800;50.940;6.940;2023-06-10T05:30:39;8.48;;;7.57;;
13455;SDS011;6800;50.940;6.940;2023-06-10T05:34:40;8.77;;;6.43;;
13455;SDS011;6800;50.940;6.940;2023-06-10T05:38:41;8.02;;;7.07;;
13455;SDS011;6800;50.940;6.940;2023-06-10T05:42:43;8.10;;;7.40;;
13455;SDS011;6800;50.940;6.940;2023-06-10T05:46:44;7.47;;;6.85;;
13455;SDS011;6800;50.940;6.940;2023-06-10T05:50:46;7.65;;;6.95;;
13455;SDS011;6800;50.940;6.940;2023-06-10T05:54:49;7.53;;;6.90;;
13455;SDS011;6800;50.940;6.940;2023-06-10T05:58:51;7.43;;;6.72;;
13455;SDS011;6800;50.940;6.940;2023-06-10T06:02:53;6.93;;;6.30;;
13455;SDS011;6800;50.940;6.940;2023-06-10T06:06:55;5.90;;;5.40;;
13455;SDS011;6800;50.940;6.940;2023-06-10T06:10:57;7.78;;;6.43;;
13455;SDS011;6800;50.940;6.940;2023-06-10T06:14:58;11.55;;;6.13;;
13455;SDS011;6800;50.940;6.940;2023-06-10T06:19:00;7.50;;;6.75;;
13455;SDS011;6800;50.940;6.940;2023-06-10T06:23:01;7.07;;;6.47;;
13455;SDS011;6800;50.940;6.940;2023-06-10T06:27:02;9.98;;;6.20;;
13455;SDS011;6800;50.940;6.940;2023-06-10T06:31:04;9.25;;;5.40;;
13455;SDS011;6800;50.940;6.940;2023-06-10T06:35:06;6.50;;;4.85;;
13455;SDS011;6800;50.940;6.940;2023-06-10T06:39:09;11.48;;;6.30;;
13455;SDS011;6800;50.940;6.940;2023-06-10T06:43:11;8.90;;;5.45;;
13455;SDS011;6800;50.940;6.940;2023-06-10T06:47:12;8.98;;;5.50;;
13455;SDS011;6800;50.940;6.940;2023-06-10T06:51:14;12.05;;;5.72;;
13455;SDS011;6800;50.940;6.940;2023-06-10T06:55:15;7.88;;;5.28;;
13455;SDS011;6800;50.940;6.940;2023-06-10T06:59:17;10.65;;;5.95;;
13455;SDS011;6800;50.940;6.940;2023-06-10T07:03:20;5.25;;;4.75;;
13455;SDS011;6800;50.940;6.940;2023-06-10T07:07:21;7.70;;;5.18;;
13455;SDS011;6800;50.940;6.940;2023-06-10T07:11:23;7.65;;;5.10;;
13455;SDS011;6800;50.940;6.940;2023-06-10T07:15:24;6.05;;;5.45;;
13455;SDS011;6800;50.940;6.940;2023-06-10T07:19:25;6.05;;;5.45;;
13455;SDS011;6800;50.940;6.940;2023-06-10T07:23:27;6.68;;;4.72;;
13455;SDS011;6800;50.940;6.940;2023-06-10T07:27:28;5.55;;;4.90;;
13455;SDS011;6800;50.940;6.940;2023-06-10T07:31:29;6.80;;;4.95;;
13455;SDS011;6800;50.940;6.940;2023-06-10T07:35:33;5.30;;;4.80;;
13455;SDS011;6800;50.940;6.940;2023-06-10T07:39:34;4.95;;;4.55;;
13455;SDS011;6800;50.940;6.940;2023-06-10T07:43:36;8.32;;;4.63;;
13455;SDS011;6800;50.940;6.940;2023-06-10T07:47:38;8.20;;;4.97;;
13455;SDS011;6800;50.940;6.940;2023-06-10T07:51:39;7.82;;;4.97;;
13455;SDS011;6800;50.940;6.940;2023-06-10T07:55:40;7.47;;;5.30;;
13455;SDS011;6800;50.940;6.940;2023-06-10T07:59:42;6.78;;;6.18;;
13455;SDS011;6800;50.940;6.940;2023-06-10T08:03:45;6.57;;;6.05;;
13455;SDS011;6800;50.940;6.940;2023-06-10T08:07:46;5.32;;;4.85;;
13455;SDS011;6800;50.940;6.940;2023-06-10T08:11:48;6.10;;;5.32;;
13455;SDS011;6800;50.940;6.940;2023-06-10T08:15:49;7.38;;;5.50;;
13455;SDS011;6800;50.940;6.940;2023-06-10T08:19:51;5.93;;;5.32;;
13455;SDS011;6800;50.940;6.940;2023-06-10T08:23:53;6.75;;;6.00;;
13455;SDS011;6800;50.940;6.940;2023-06-10T08:27:55;5.50;;;5.03;;
13455;SDS011;6800;50.940;6.940;2023-06-10T08:31:58;9.93;;;6.13;;
13455;SDS011;6800;50.940;6.940;2023-06-10T08:36:00;7.50;;;6.80;;
13455;SDS011;6800;50.940;6.940;2023-06-10T08:40:01;7.15;;;6.60;;
13455;SDS011;6800;50.940;6.940;2023-06-10T08:44:04;9.52;;;6.25;;
13455;SDS011;6800;50.940;6.940;2023-06-10T08:48:11;6.85;;;6.30;;
13455;SDS011;6800;50.940;6.940;2023-06-10T08:52:15;6.75;;;5.78;;
13455;SDS011;6800;50.940;6.940;2023-06-10T08:56:17;6.82;;;5.80;;
13455;SDS011;6800;50.940;6.940;2023-06-10T09:00:19;6.82;;;6.03;;
13455;SDS011;6800;50.940;6.940;2023-06-10T09:04:23;6.22;;;5.72;;
13455;SDS011;6800;50.940;6.940;2023-06-10T09:08:25;7.72;;;6.25;;
13455;SDS011;6800;50.940;6.940;2023-06-10T09:12:26;7.40;;;6.80;;
13455;SDS011;6800;50.940;6.940;2023-06-10T09:16:28;19.85;;;18.70;;
13455;SDS011;6800;50.940;6.940;2023-06-10T09:20:29;9.07;;;8.35;;
13455;SDS011;6800;50.940;6.940;2023-06-10T09:24:31;8.35;;;6.47;;
13455;SDS011;6800;50.940;6.940;2023-06-10T09:28:33;11.93;;;11.13;;
13455;SDS011;6800;50.940;6.940;2023-06-10T09:32:38;7.13;;;6.50;;
13455;SDS011;6800;50.940;6.940;2023-06-10T09:36:40;11.20;;;10.50;;
13455;SDS011;6800;50.940;6.940;2023-06-10T09:40:48;7.43;;;6.35;;
13455;SDS011;6800;50.940;6.940;2023-06-10T09:44:53;8.07;;;7.35;;
13455;SDS011;6800;50.940;6.940;2023-06-10T09:48:54;6.90;;;6.43;;
13455;SDS011;6800;50.940;6.940;2023-06-10T09:52:58;9.15;;;8.35;;
13455;SDS011;6800;50.940;6.940;2023-06-10T09:57:01;19.73;;;18.27;;
13455;SDS011;6800;50.940;6.940;2023-06-10T10:01:09;7.13;;;6.50;;
13455;SDS011;6800;50.940;6.940;2023-06-10T10:05:13;6.45;;;5.85;;
13455;SDS011;6800;50.940;6.940;2023-06-10T10:09:15;7.60;;;6.22;;
13455;SDS011;6800;50.940;6.940;2023-06-10T10:13:17;6.60;;;5.88;;
13455;SDS011;6800;50.940;6.940;2023-06-10T10:17:20;7.57;;;6.20;;
13455;SDS011;6800;50.940;6.940;2023-06-10T10:21:23;6.07;;;5.50;;
13455;SDS011;6800;50.940;6.940;2023-06-10T10:25:28;7.07;;;5.50;;
13455;SDS011;6800;50.940;6.940;2023-06-10T10:29:37;8.90;;;6.55;;
13455;SDS011;6800;50.940;6.940;2023-06-10T10:33:54;6.78;;;6.18;;
13455;SDS011;6800;50.940;6.940;2023-06-10T10:37:59;7.68;;;6.88;;
13455;SDS011;6800;50.940;6.940;2023-06-10T10:42:01;12.25;;;6.63;;
13455;SDS011;6800;50.940;6.940;2023-06-10T10:46:08;6.70;;;6.20;;
13455;SDS011;6800;50.940;6.940;2023-06-10T10:50:13;6.63;;;6.10;;
13455;SDS011;6800;50.940;6.940;2023-06-10T10:54:17;6.30;;;5.75;;
13455;SDS011;6800;50.940;6.940;2023-06-10T10:58:18;6.93;;;5.60;;
13455;SDS011;6800;50.940;6.940;2023-06-10T11:02:36;6.65;;;6.15;;
13455;SDS011;6800;50.940;6.940;2023-06-10T11:06:39;5.57;;;5.03;;
13455;SDS011;6800;50.940;6.940;2023-06-10T11:10:53;6.97;;;6.38;;
13455;SDS011;6800;50.940;6.940;2023-06-10T11:14:55;6.03;;;5.43;;
13455;SDS011;6800;50.940;6.940;2023-06-10T11:18:57;7.03;;;5.35;;
13455;SDS011;6800;50.940;6.940;2023-06-10T11:22:58;5.53;;;5.03;;
13455;SDS011;6800;50.940;6.940;2023-06-10T11:31:26;6.03;;;5.60;;
13455;SDS011;6800;50.940;6.940;2023-06-10T11:35:29;6.10;;;5.60;;
13455;SDS011;6800;50.940;6.940;2023-06-10T11:39:31;7.30;;;5.97;;
13455;SDS011;6800;50.940;6.940;2023-06-10T11:43:33;5.70;;;5.30;;
13455;SDS011;6800;50.940;6.940;2023-06-10T11:47:35;6.18;;;5.65;;
13455;SDS011;6800;50.940;6.940;2023-06-10T11:51:37;5.93;;;5.43;;
13455;SDS011;6800;50.940;6.940;2023-06-10T11:55:41;6.05;;;5.55;;
13455;SDS011;6800;50.940;6.940;2023-06-10T11:59:44;7.47;;;5.88;;
13455;SDS011;6800;50.940;6.940;2023-06-10T12:03:45;5.57;;;4.72;;
13455;SDS011;6800;50.940;6.940;2023-06-10T12:07:47;5.78;;;5.28;;
13455;SDS011;6800;50.940;6.940;2023-06-10T12:11:49;6.53;;;4.97;;
13455;SDS011;6800;50.940;6.940;2023-06-10T12:16:05;6.15;;;4.68;;
13455;SDS011;6800;50.940;6.940;2023-06-10T12:20:12;5.70;;;5.20;;
13455;SDS011;6800;50.940;6.940;2023-06-10T12:24:27;10.95;;;5.53;;
13455;SDS011;6800;50.940;6.940;2023-06-10T12:28:28;8.00;;;5.88;;
13455;SDS011;6800;50.940;6.940;2023-06-10T12:32:40;5.93;;;5.35;;
13455;SDS011;6800;50.940;6.940;2023-06-10T12:36:48;5.65;;;5.15;;
13455;SDS011;6800;50.940;6.940;2023-06-10T12:40:50;7.90;;;5.90;;
13455;SDS011;6800;50.940;6.940;2023-06-10T12:44:55;6.35;;;5.70;;
13455;SDS011;6800;50.940;6.940;2023-06-10T12:49:01;6.65;;;6.13;;
13455;SDS011;6800;50.940;6.940;2023-06-10T12:53:03;6.78;;;5.35;;
13455;SDS011;6800;50.940;6.940;2023-06-10T12:57:04;7.60;;;5.63;;
13455;SDS011;6800;50.940;6.940;2023-06-10T13:01:06;5.97;;;4.60;;
13455;SDS011;6800;50.940;6.940;2023-06-10T13:05:07;5.70;;;5.20;;
13455;SDS011;6800;50.940;6.940;2023-06-10T13:09:12;5.10;;;4.65;;
13455;SDS011;6800;50.940;6.940;2023-06-10T13:13:14;5.55;;;4.40;;
13455;SDS011;6800;50.940;6.940;2023-06-10T13:17:16;4.93;;;4.53;;
13455;SDS011;6800;50.940;6.940;2023-06-10T13:21:17;5.43;;;5.00;;
13455;SDS011;6800;50.940;6.940;2023-06-10T13:25:19;5.05;;;4.65;;
13455;SDS011;6800;50.940;6.940;2023-06-10T13:29:20;4.95;;;4.55;;
13455;SDS011;6800;50.940;6.940;2023-06-10T13:33:22;5.72;;;4.60;;
13455;SDS011;6800;50.940;6.940;2023-06-10T13:37:23;5.38;;;4.88;;
13455;SDS011;6800;50.940;6.940;2023-06-10T13:41:25;5.50;;;4.85;;
13455;SDS011;6800;50.940;6.940;2023-06-10T13:45:28;7.53;;;5.53;;
13455;SDS011;6800;50.940;6.940;2023-06-10T13:49:29;5.57;;;5.03;;
13455;SDS011;6800;50.940;6.940;2023-06-10T13:53:32;5.15;;;4.72;;
13455;SDS011;6800;50.940;6.940;2023-06-10T13:57:33;5.65;;;5.15;;
13455;SDS011;6800;50.940;6.940;2023-06-10T14:01:34;5.63;;;4.65;;
13455;SDS011;6800;50.940;6.940;2023-06-10T14:05:36;4.75;;;4.35;;
13455;SDS011;6800;50.940;6.940;2023-06-10T14:09:37;5.05;;;4.65;;
13455;SDS011;6800;50.940;6.940;2023-06-10T14:13:38;5.10;;;4.65;;
13455;SDS011;6800;50.940;6.940;2023-06-10T14:17:41;4.95;;;4.55;;
13455;SDS011;6800;50.940;6.940;2023-06-10T14:21:43;4.90;;;4.50;;
13455;SDS011;6800;50.940;6.940;2023-06-10T14:25:44;5.25;;;4.80;;
13455;SDS011;6800;50.940;6.940;2023-06-10T14:29:49;4.97;;;4.45;;
13455;SDS011;6800;50.940;6.940;2023-06-10T14:33:51;5.07;;;4.60;;
13455;SDS011;6800;50.940;6.940;2023-06-10T14:37:53;4.82;;;4.32;;
13455;SDS011;6800;50.940;6.940;2023-06-10T14:41:54;4.63;;;4.15;;
13455;SDS011;6800;50.940;6.940;2023-06-10T14:45:55;5.43;;;4.32;;
13455;SDS011;6800;50.940;6.940;2023-06-10T14:49:58;5.35;;;4.28;;
13455;SDS011;6800;50.940;6.940;2023-06-10T14:53:59;7.72;;;4.65;;
13455;SDS011;6800;50.940;6.940;2023-06-10T14:58:01;5.65;;;5.20;;
13455;SDS011;6800;50.940;6.940;2023-06-10T15:02:02;4.93;;;4.40;;
13455;SDS011;6800;50.940;6.940;2023-06-10T15:06:04;5.22;;;4.80;;
13455;SDS011;6800;50.940;6.940;2023-06-10T15:10:05;6.65;;;4.93;;
13455;SDS011;6800;50.940;6.940;2023-06-10T15:14:07;5.28;;;4.78;;
13455;SDS011;6800;50.940;6.940;2023-06-10T15:18:08;5.55;;;4.40;;
13455;SDS011;6800;50.940;6.940;2023-06-10T15:22:10;5.38;;;4.97;;
13455;SDS011;6800;50.940;6.940;2023-06-10T15:26:13;6.20;;;5.70;;
13455;SDS011;6800;50.940;6.940;2023-06-10T15:30:14;5.03;;;4.63;;
13455;SDS011;6800;50.940;6.940;2023-06-10T15:34:15;5.15;;;4.75;;
13455;SDS011;6800;50.940;6.940;2023-06-10T15:38:17;5.65;;;5.07;;
13455;SDS011;6800;50.940;6.940;2023-06-10T15:42:18;4.90;;;4.50;;
13455;SDS011;6800;50.940;6.940;2023-06-10T15:46:19;5.25;;;4.80;;
13455;SDS011;6800;50.940;6.940;2023-06-10T15:50:21;5.43;;;4.55;;
13455;SDS011;6800;50.940;6.940;2023-06-10T15:54:22;5.70;;;4.68;;
13455;SDS011;6800;50.940;6.940;2023-06-10T15:58:24;4.78;;;4.38;;
13455;SDS011;6800;50.940;6.940;2023-06-10T16:02:25;5.22;;;4.72;;
13455;SDS011;6800;50.940;6.940;2023-06-10T16:06:26;5.95;;;4.80;;
13455;SDS011;6800;50.940;6.940;2023-06-10T16:10:28;4.85;;;4.45;;
13455;SDS011;6800;50.940;6.940;2023-06-10T16:14:29;5.30;;;4.80;;
13455;SDS011;6800;50.940;6.940;2023-06-10T16:18:31;5.03;;;4.53;;
13455;SDS011;6800;50.940;6.940;2023-06-10T16:22:32;4.85;;;4.50;;
13455;SDS011;6800;50.940;6.940;2023-06-10T16:26:33;5.43;;;4.85;;
13455;SDS011;6800;50.940;6.940;2023-06-10T16:30:35;5.95;;;4.35;;
13455;SDS011;6800;50.940;6.940;2023-06-10T16:34:37;4.85;;;4.40;;
13455;SDS011;6800;50.940;6.940;2023-06-10T16:38:38;5.47;;;4.35;;
13455;SDS011;6800;50.940;6.940;2023-06-10T16:42:39;5.40;;;4.70;;
13455;SDS011;6800;50.940;6.940;2023-06-10T16:46:41;5.13;;;4.28;;
13455;SDS011;6800;50.940;6.940;2023-06-10T16:50:42;5.00;;;4.32;;
13455;SDS011;6800;50.940;6.940;2023-06-10T16:54:43;6.63;;;4.70;;
13455;SDS011;6800;50.940;6.940;2023-06-10T16:58:45;8.75;;;5.97;;
13455;SDS011;6800;50.940;6.940;2023-06-10T17:02:46;5.35;;;4.85;;
13455;SDS011;6800;50.940;6.940;2023-06-10T17:06:48;5.15;;;4.72;;
13455;SDS011;6800;50.940;6.940;2023-06-10T17:10:50;5.60;;;4.85;;
13455;SDS011;6800;50.940;6.940;2023-06-10T17:14:51;6.32;;;5.13;;
13455;SDS011;6800;50.940;6.940;2023-06-10T17:18:52;5.57;;;4.95;;
13455;SDS011;6800;50.940;6.940;2023-06-10T17:22:54;8.00;;;5.45;;
13455;SDS011;6800;50.940;6.940;2023-06-10T17:26:55;5.95;;;4.68;;
13455;SDS011;6800;50.940;6.940;2023-06-10T17:30:57;5.40;;;4.90;;
13455;SDS011;6800;50.940;6.940;2023-06-10T17:34:58;6.40;;;5.80;;
13455;SDS011;6800;50.940;6.940;2023-06-10T17:38:59;6.72;;;5.20;;
13455;SDS011;6800;50.940;6.940;2023-06-10T17:43:01;5.78;;;5.28;;
13455;SDS011;6800;50.940;6.940;2023-06-10T17:47:02;5.13;;;4.63;;
13455;SDS011;6800;50.940;6.940;2023-06-10T17:51:05;10.10;;;7.93;;
13455;SDS011;6800;50.940;6.940;2023-06-10T17:55:06;6.32;;;5.68;;
13455;SDS011;6800;50.940;6.940;2023-06-10T17:59:08;7.72;;;5.32;;
13455;SDS011;6800;50.940;6.940;2023-06-10T18:03:09;6.68;;;5.80;;
13455;SDS011;6800;50.940;6.940;2023-06-10T18:07:11;6.10;;;5.50;;
13455;SDS011;6800;50.940;6.940;2023-06-10T18:11:12;6.28;;;5.25;;
13455;SDS011;6800;50.940;6.940;2023-06-10T18:15:14;6.80;;;6.15;;
13455;SDS011;6800;50.940;6.940;2023-06-10T18:19:15;6.03;;;5.53;;
13455;SDS011;6800;50.940;6.940;2023-06-10T18:23:16;6.10;;;5.60;;
13455;SDS011;6800;50.940;6.940;2023-06-10T18:27:18;5.78;;;5.28;;
13455;SDS011;6800;50.940;6.940;2023-06-10T18:31:19;6.63;;;5.93;;
13455;SDS011;6800;50.940;6.940;2023-06-10T18:35:21;6.43;;;5.82;;
13455;SDS011;6800;50.940;6.940;2023-06-10T18:39:22;6.57;;;5.95;;
13455;SDS011;6800;50.940;6.940;2023-06-10T18:43:24;7.80;;;7.10;;
13455;SDS011;6800;50.940;6.940;2023-06-10T18:47:25;6.68;;;5.97;;
13455;SDS011;6800;50.940;6.940;2023-06-10T18:51:27;6.65;;;6.05;;
13455;SDS011;6800;50.940;6.940;2023-06-10T18:55:28;7.10;;;6.40;;
13455;SDS011;6800;50.940;6.940;2023-06-10T18:59:33;6.20;;;5.70;;
13455;SDS011;6800;50.940;6.940;2023-06-10T19:03:34;6.63;;;6.05;;
13455;SDS011;6800;50.940;6.940;2023-06-10T19:07:36;6.63;;;6.00;;
13455;SDS011;6800;50.940;6.940;2023-06-10T19:11:38;7.10;;;6.35;;
13455;SDS011;6800;50.940;6.940;2023-06-10T19:15:39;6.85;;;6.25;;
13455;SDS011;6800;50.940;6.940;2023-06-10T19:19:41;6.82;;;6.22;;
13455;SDS011;6800;50.940;6.940;2023-06-10T19:23:42;6.97;;;6.18;;
13455;SDS011;6800;50.940;6.940;2023-06-10T19:27:44;6.53;;;5.93;;
13455;SDS011;6800;50.940;6.940;2023-06-10T19:31:45;8.48;;;7.30;;
13455;SDS011;6800;50.940;6.940;2023-06-10T19:35:47;8.63;;;7.82;;
13455;SDS011;6800;50.940;6.940;2023-06-10T19:39:48;10.18;;;9.07;;
13455;SDS011;6800;50.940;6.940;2023-06-10T19:43:50;7.68;;;7.00;;
13455;SDS011;6800;50.940;6.940;2023-06-10T19:47:51;7.50;;;6.82;;
13455;SDS011;6800;50.940;6.940;2023-06-10T19:51:52;7.65;;;6.93;;
13455;SDS011;6800;50.940;6.940;2023-06-10T19:55:54;7.80;;;6.60;;
13455;SDS011;6800;50.940;6.940;2023-06-10T19:59:56;7.53;;;6.72;;
13455;SDS011;6800;50.940;6.940;2023-06-10T20:03:57;8.05;;;7.35;;
13455;SDS011;6800;50.940;6.940;2023-06-10T20:07:59;8.18;;;7.18;;
13455;SDS011;6800;50.940;6.940;2023-06-10T20:12:03;7.75;;;7.05;;
13455;SDS011;6800;50.940;6.940;2023-06-10T20:16:06;7.90;;;7.20;;
13455;SDS011;6800;50.940;6.940;2023-06-10T20:20:08;6.93;;;6.22;;
13455;SDS011;6800;50.940;6.940;2023-06-10T20:24:10;7.70;;;6.88;;
13455;SDS011;6800;50.940;6.940;2023-06-10T20:28:12;6.72;;;6.13;;
13455;SDS011;6800;50.940;6.940;2023-06-10T20:32:13;9.63;;;6.22;;
13455;SDS011;6800;50.940;6.940;2023-06-10T20:36:15;7.10;;;6.22;;
13455;SDS011;6800;50.940;6.940;2023-06-10T20:40:16;8.75;;;6.43;;
13455;SDS011;6800;50.940;6.940;2023-06-10T20:44:18;8.73;;;6.30;;
13455;SDS011;6800;50.940;6.940;2023-06-10T20:48:19;6.63;;;5.93;;
13455;SDS011;6800;50.940;6.940;2023-06-10T20:52:21;6.50;;;5.93;;
13455;SDS011;6800;50.940;6.940;2023-06-10T20:56:22;6.57;;;6.00;;
13455;SDS011;6800;50.940;6.940;2023-06-10T21:00:24;9.48;;;6.95;;
13455;SDS011;6800;50.940;6.940;2023-06-10T21:04:26;7.07;;;5.93;;
13455;SDS011;6800;50.940;6.940;2023-06-10T21:08:28;6.75;;;6.13;;
13455;SDS011;6800;50.940;6.940;2023-06-10T21:12:29;9.02;;;7.00;;
13455;SDS011;6800;50.940;6.940;2023-06-10T21:16:31;8.25;;;7.28;;
13455;SDS011;6800;50.940;6.940;2023-06-10T21:20:35;10.70;;;6.70;;
13455;SDS011;6800;50.940;6.940;2023-06-10T21:24:36;7.00;;;6.40;;
13455;SDS011;6800;50.940;6.940;2023-06-10T21:28:38;7.75;;;6.97;;
13455;SDS011;6800;50.940;6.940;2023-06-10T21:32:39;7.40;;;6.50;;
13455;SDS011;6800;50.940;6.940;2023-06-10T21:36:40;8.15;;;7.47;;
13455;SDS011;6800;50.940;6.940;2023-06-10T21:40:42;7.30;;;6.60;;
13455;SDS011;6800;50.940;6.940;2023-06-10T21:44:44;6.95;;;6.25;;
13455;SDS011;6800;50.940;6.940;2023-06-10T21:48:45;6.88;;;6.18;;
13455;SDS011;6800;50.940;6.940;2023-06-10T21:52:47;7.65;;;6.95;;
13455;SDS011;6800;50.940;6.940;2023-06-10T21:56:49;7.05;;;6.43;;
13455;SDS011;6800;50.940;6.940;2023-06-10T22:00:51;8.00;;;7.20;;
13455;SDS011;6800;50.940;6.940;2023-06-10T22:04:52;8.80;;;7.90;;
13455;SDS011;6800;50.940;6.940;2023-06-10T22:08:55;8.52;;;7.63;;
13455;SDS011;6800;50.940;6.940;2023-06-10T22:12:57;8.80;;;8.00;;
13455;SDS011;6800;50.940;6.940;2023-06-10T22:16:58;9.50;;;7.88;;
13455;SDS011;6800;50.940;6.940;2023-06-10T22:21:00;8.75;;;7.60;;
13455;SDS011;6800;50.940;6.940;2023-06-10T22:25:02;9.55;;;7.20;;
13455;SDS011;6800;50.940;6.940;2023-06-10T22:29:04;9.75;;;6.32;;
13455;SDS011;6800;50.940;6.940;2023-06-10T22:33:05;9.50;;;7.00;;
13455;SDS011;6800;50.940;6.940;2023-06-10T22:37:07;8.60;;;7.20;;
13455;SDS011;6800;50.940;6.940;2023-06-10T22:41:08;8.73;;;7.82;;
13455;SDS011;6800;50.940;6.940;2023-06-10T22:45:10;8.05;;;7.05;;
13455;SDS011;6800;50.940;6.940;2023-06-10T22:49:11;7.75;;;7.05;;
13455;SDS011;6800;50.940;6.940;2023-06-10T22:53:14;7.50;;;6.90;;
13455;SDS011;6800;50.940;6.940;2023-06-10T22:57:16;7.70;;;6.88;;
13455;SDS011;6800;50.940;6.940;2023-06-10T23:01:17;7.78;;;7.07;;
13455;SDS011;6800;50.940;6.940;2023-06-10T23:05:18;6.57;;;6.05;;
13455;SDS011;6800;50.940;6.940;2023-06-10T23:09:20;8.25;;;7.45;;
13455;SDS011;6800;50.940;6.940;2023-06-10T23:13:21;7.50;;;6.65;;
13455;SDS011;6800;50.940;6.940;2023-06-10T23:17:23;7.65;;;6.90;;
13455;SDS011;6800;50.940;6.940;2023-06-10T23:21:24;7.53;;;6.63;;
13455;SDS011;6800;50.940;6.940;2023-06-10T23:25:29;7.50;;;6.68;;
13455;SDS011;6800;50.940;6.940;2023-06-10T23:29:31;6.32;;;5.72;;
13455;SDS011;6800;50.940;6.940;2023-06-10T23:33:35;7.30;;;6.30;;
13455;SDS011;6800;50.940;6.940;2023-06-10T23:37:38;7.00;;;6.30;;
13455;SDS011;6800;50.940;6.940;2023-06-10T23:41:40;6.68;;;6.07;;
13455;SDS011;6800;50.940;6.940;2023-06-10T23:45:41;7.15;;;6.45;;
13455;SDS011;6800;50.940;6.940;2023-06-10T23:49:43;6.90;;;6.30;;
13455;SDS011;6800;50.940;6.940;2023-06-10T23:53:45;6.82;;;6.13;;
13455;SDS011;6800;50.940;6.940;2023-06-10T23:57:47;6.68;;;6.07;;
